Time;durP1;ratioP1;P1;durP2;ratioP2;P2;SDS_P1;SDS_P2;PMS_P1;PMS_P2;Temp;Humidity;BMP_temperature;BMP_pressure;BME280_temperature;BME280_humidity;BME280_pressure;Samples;Min_cycle;Max_cycle;Signal;HPM_P1;HPM_P2
2024/02/20 00:00:06;;;;;;;4.90;2.27;;;8.40;99.90;8.40;101006.00;;;;4927519;28;88182;-72
2024/02/20 00:02:32;;;;;;;3.67;2.50;;;8.50;99.90;8.40;101016.00;;;;4932748;28;88410;-71
2024/02/20 00:04:58;;;;;;;5.00;2.40;;;8.50;99.90;8.40;101020.00;;;;4930201;28;87510;-72
2024/02/20 00:07:24;;;;;;;10.10;3.07;;;8.50;99.90;8.40;101017.00;;;;4929914;28;87925;-70
2024/02/20 00:09:50;;;;;;;4.07;3.17;;;8.50;99.90;8.40;101011.00;;;;4929520;28;109506;-69
2024/02/20 00:12:15;;;;;;;7.30;3.33;;;8.50;99.90;8.40;101018.00;;;;4932709;28;89020;-69
2024/02/20 00:14:42;;;;;;;3.93;2.53;;;8.50;99.90;8.40;101012.00;;;;4933749;28;89220;-71
2024/02/20 00:17:08;;;;;;;4.50;2.60;;;8.50;99.90;8.40;101008.00;;;;4932920;28;87733;-71
2024/02/20 00:19:33;;;;;;;6.27;2.93;;;8.50;99.90;8.30;101013.00;;;;4932992;28;88149;-72
2024/02/20 00:21:59;;;;;;;9.03;3.17;;;8.50;99.90;8.30;101014.00;;;;4933724;28;107629;-71
2024/02/20 00:24:25;;;;;;;5.73;3.27;;;8.40;99.90;8.30;101009.00;;;;4933323;28;117040;-72
2024/02/20 00:26:50;;;;;;;7.50;3.03;;;8.50;99.90;8.30;101016.00;;;;4933330;28;117754;-73
2024/02/20 00:29:16;;;;;;;5.33;3.37;;;8.50;99.90;8.30;101016.00;;;;4942152;28;88390;-74
2024/02/20 00:31:42;;;;;;;4.03;3.03;;;8.40;99.90;8.30;101020.00;;;;4934068;28;108078;-74
2024/02/20 00:34:08;;;;;;;6.43;2.80;;;8.40;99.90;8.30;101013.00;;;;4949197;28;95210;-73
2024/02/20 00:36:33;;;;;;;8.00;3.53;;;8.50;99.90;8.30;101024.00;;;;4931175;28;109096;-73
2024/02/20 00:38:59;;;;;;;5.70;3.57;;;8.40;99.90;8.30;101014.00;;;;4932311;28;110015;-74
2024/02/20 00:41:26;;;;;;;6.57;3.30;;;8.40;99.90;8.30;101024.00;;;;4935430;28;88318;-76
2024/02/20 00:43:52;;;;;;;4.03;2.37;;;8.40;99.90;8.30;101025.00;;;;4936476;28;89698;-72
2024/02/20 00:46:22;;;;;;;3.60;2.83;;;8.50;99.90;8.30;101029.00;;;;4931348;28;115480;-75
2024/02/20 00:48:49;;;;;;;5.93;3.50;;;8.40;99.90;8.30;101022.00;;;;4927828;28;88164;-72
2024/02/20 00:51:17;;;;;;;6.23;2.97;;;8.50;99.90;8.30;101022.00;;;;4930190;28;93282;-72
2024/02/20 00:53:43;;;;;;;4.43;3.07;;;8.40;99.90;8.30;101028.00;;;;4932915;28;87063;-73
2024/02/20 00:56:09;;;;;;;7.33;3.37;;;8.50;99.90;8.30;101021.00;;;;4932038;28;87814;-71
2024/02/20 00:58:35;;;;;;;4.07;3.13;;;8.40;99.90;8.30;101020.00;;;;4932877;28;88199;-73
2024/02/20 01:01:00;;;;;;;5.20;3.30;;;8.40;99.90;8.30;101020.00;;;;4927330;28;109774;-72
2024/02/20 01:03:26;;;;;;;4.80;2.67;;;8.40;99.90;8.30;101030.00;;;;4939332;28;118105;-71
2024/02/20 01:05:52;;;;;;;5.47;2.90;;;8.40;99.90;8.30;101021.00;;;;4933991;28;88397;-72
2024/02/20 01:08:18;;;;;;;9.83;3.77;;;8.40;99.90;8.30;101023.00;;;;4935133;28;109558;-71
2024/02/20 01:10:44;;;;;;;4.80;3.97;;;8.40;99.90;8.30;101023.00;;;;4931986;28;107998;-74
2024/02/20 01:13:10;;;;;;;7.60;3.27;;;8.40;99.90;8.30;101016.00;;;;4929027;28;89264;-74
2024/02/20 01:15:36;;;;;;;4.93;2.73;;;8.40;99.90;8.30;101008.00;;;;4934686;28;88259;-74
2024/02/20 01:18:01;;;;;;;6.33;4.07;;;8.40;99.90;8.30;101017.00;;;;4939884;28;87339;-72
2024/02/20 01:20:27;;;;;;;4.47;3.30;;;8.40;99.90;8.30;101013.00;;;;4940032;28;88026;-73
2024/02/20 01:22:53;;;;;;;6.57;3.33;;;8.40;99.90;8.30;101012.00;;;;4933258;28;89295;-73
2024/02/20 01:25:20;;;;;;;8.70;4.27;;;8.40;99.90;8.30;101003.00;;;;4931425;28;96529;-71
2024/02/20 01:27:46;;;;;;;7.00;3.47;;;8.40;99.90;8.30;101004.00;;;;4929825;28;93825;-72
2024/02/20 01:30:12;;;;;;;3.00;2.63;;;8.30;99.90;8.30;101015.00;;;;4938888;28;87879;-75
2024/02/20 01:32:38;;;;;;;6.57;3.77;;;8.40;99.90;8.30;101008.00;;;;4931723;28;87512;-72
2024/02/20 01:35:06;;;;;;;5.60;3.13;;;8.40;99.90;8.30;101007.00;;;;4935657;28;89182;-70
2024/02/20 01:37:31;;;;;;;4.57;3.00;;;8.40;99.90;8.30;101004.00;;;;4928314;28;101695;-70
2024/02/20 01:39:57;;;;;;;4.77;3.50;;;8.40;99.90;8.30;101000.00;;;;4933728;28;109810;-69
2024/02/20 01:42:23;;;;;;;8.23;3.67;;;8.40;99.90;8.30;101001.00;;;;4927290;28;116470;-69
2024/02/20 01:44:48;;;;;;;6.00;3.53;;;8.40;99.90;8.30;100996.00;;;;4937701;28;87971;-70
2024/02/20 01:47:17;;;;;;;8.17;3.77;;;8.40;99.90;8.30;100988.00;;;;4933828;28;108962;-69
2024/02/20 01:49:42;;;;;;;3.43;2.37;;;8.40;99.90;8.30;100998.00;;;;4930090;28;88624;-71
2024/02/20 01:52:12;;;;;;;7.33;4.50;;;8.40;99.90;8.20;100986.00;;;;4926471;28;113792;-69
2024/02/20 01:54:39;;;;;;;5.37;3.37;;;8.30;99.90;8.30;101002.00;;;;4937688;28;89162;-69
2024/02/20 01:57:06;;;;;;;5.17;3.60;;;8.40;99.90;8.30;100997.00;;;;4927095;28;109603;-69
2024/02/20 01:59:35;;;;;;;5.17;3.17;;;8.40;99.90;8.30;100996.00;;;;4937127;28;87674;-72
2024/02/20 02:02:00;;;;;;;9.53;3.77;;;8.40;99.90;8.30;100997.00;;;;4933580;28;88320;-72
2024/02/20 02:04:26;;;;;;;8.73;4.03;;;8.40;99.90;8.20;100995.00;;;;4931729;28;88107;-70
2024/02/20 02:06:52;;;;;;;8.90;3.77;;;8.40;99.90;8.30;100997.00;;;;4935288;28;88354;-70
2024/02/20 02:09:17;;;;;;;4.93;3.00;;;8.40;99.90;8.20;100995.00;;;;4933471;28;108374;-71
2024/02/20 02:11:43;;;;;;;4.30;2.93;;;8.40;99.90;8.20;100988.00;;;;4930502;28;117710;-68
2024/02/20 02:14:09;;;;;;;4.43;3.30;;;8.40;99.90;8.20;100985.00;;;;4929619;28;115490;-71
2024/02/20 02:16:37;;;;;;;7.47;4.77;;;8.30;99.90;8.20;100987.00;;;;4931662;28;87800;-68
2024/02/20 02:19:03;;;;;;;3.87;3.47;;;8.30;99.90;8.20;100991.00;;;;4928795;28;87901;-68
2024/02/20 02:21:29;;;;;;;3.80;2.87;;;8.30;99.90;8.20;100990.00;;;;4929736;28;116815;-69
2024/02/20 02:23:55;;;;;;;8.03;4.93;;;8.30;99.90;8.20;100987.00;;;;4931394;28;116434;-71
2024/02/20 02:26:20;;;;;;;5.17;3.40;;;8.30;99.90;8.20;100991.00;;;;4916540;28;109460;-71
2024/02/20 02:28:47;;;;;;;5.33;3.93;;;8.30;99.90;8.20;100998.00;;;;4934537;28;108792;-72
2024/02/20 02:31:16;;;;;;;3.67;2.87;;;8.30;99.90;8.20;101000.00;;;;4933719;28;87161;-71
2024/02/20 02:33:45;;;;;;;5.53;3.10;;;8.30;99.90;8.20;100995.00;;;;4928668;28;87710;-70
2024/02/20 02:36:12;;;;;;;5.67;3.57;;;8.30;99.90;8.20;100986.00;;;;4929209;28;87949;-69
2024/02/20 02:38:39;;;;;;;7.60;4.23;;;8.30;99.90;8.20;100988.00;;;;4930362;28;88745;-70
2024/02/20 02:41:05;;;;;;;4.90;3.60;;;8.40;99.90;8.10;100985.00;;;;4932890;28;89322;-70
2024/02/20 02:43:31;;;;;;;4.63;3.70;;;8.30;99.90;8.20;100991.00;;;;4932760;28;88949;-70
2024/02/20 02:45:56;;;;;;;9.83;4.03;;;8.30;99.90;8.20;100990.00;;;;4929060;28;87799;-71
2024/02/20 02:48:22;;;;;;;4.80;4.27;;;8.30;99.90;8.20;100996.00;;;;4928662;28;87814;-70
2024/02/20 02:50:48;;;;;;;8.83;3.33;;;8.30;99.90;8.20;100988.00;;;;4930244;28;104328;-69
2024/02/20 02:53:15;;;;;;;6.40;3.83;;;8.30;99.90;8.20;100993.00;;;;4929454;28;116362;-70
2024/02/20 02:55:41;;;;;;;10.93;4.53;;;8.30;99.90;8.20;100994.00;;;;4938052;28;87324;-72
2024/02/20 02:58:07;;;;;;;4.63;3.57;;;8.30;99.90;8.20;100995.00;;;;4936802;28;87771;-69
2024/02/20 03:00:33;;;;;;;5.67;4.20;;;8.30;99.90;8.20;100995.00;;;;4934778;28;88410;-69
2024/02/20 03:02:59;;;;;;;5.97;3.93;;;8.30;99.90;8.20;101001.00;;;;4926531;28;117375;-70
2024/02/20 03:05:24;;;;;;;7.70;4.63;;;8.30;99.90;8.20;100996.00;;;;4930080;28;107907;-69
2024/02/20 03:07:50;;;;;;;7.80;3.97;;;8.30;99.90;8.20;100995.00;;;;4935030;28;87955;-72
2024/02/20 03:10:16;;;;;;;11.70;4.97;;;8.40;99.90;8.20;100998.00;;;;4928051;28;117442;-72
2024/02/20 03:12:41;;;;;;;5.73;3.97;;;8.30;99.90;8.20;100999.00;;;;4924664;28;117178;-69
2024/02/20 03:15:08;;;;;;;6.07;3.90;;;8.40;99.90;8.20;101006.00;;;;4933328;28;87680;-70
2024/02/20 03:17:34;;;;;;;5.77;4.17;;;8.40;99.90;8.20;101011.00;;;;4930974;28;89989;-72
2024/02/20 03:20:00;;;;;;;5.50;4.33;;;8.40;99.90;8.30;101002.00;;;;4932129;28;88269;-71
2024/02/20 03:22:26;;;;;;;12.10;4.87;;;8.40;99.90;8.20;101013.00;;;;4933311;28;117100;-72
2024/02/20 03:24:52;;;;;;;9.97;5.10;;;8.40;99.90;8.30;101008.00;;;;4930939;28;87777;-71
2024/02/20 03:27:18;;;;;;;13.53;4.30;;;8.40;99.90;8.30;101008.00;;;;4930379;28;88990;-72
2024/02/20 03:29:44;;;;;;;8.30;4.47;;;8.40;99.90;8.30;101003.00;;;;4932676;28;88487;-70
2024/02/20 03:32:10;;;;;;;7.13;4.57;;;8.80;99.90;8.30;101010.00;;;;4926799;28;115256;-71
2024/02/20 03:34:35;;;;;;;5.20;3.53;;;8.40;99.90;8.30;101021.00;;;;4933643;28;110720;-72
2024/02/20 03:37:04;;;;;;;6.27;3.77;;;8.40;99.90;8.30;101008.00;;;;4930241;28;107603;-69
2024/02/20 03:39:30;;;;;;;8.27;3.70;;;8.40;99.90;8.30;101016.00;;;;4949890;28;88443;-71
2024/02/20 03:41:55;;;;;;;10.03;4.97;;;8.40;99.90;8.30;101019.00;;;;4936552;28;117187;-71
2024/02/20 03:44:21;;;;;;;7.27;4.83;;;8.40;99.90;8.30;101020.00;;;;4934636;28;111301;-71
2024/02/20 03:46:47;;;;;;;4.03;3.63;;;8.60;99.90;8.20;101016.00;;;;4932127;28;109488;-69
2024/02/20 03:49:14;;;;;;;8.20;4.80;;;8.40;99.90;8.20;101020.00;;;;4936937;28;87994;-68
2024/02/20 03:51:39;;;;;;;8.40;5.47;;;8.40;99.90;8.20;101026.00;;;;4933887;28;89081;-68
2024/02/20 04:17:24;;;;;;;8.57;4.93;;;8.20;99.90;8.00;101050.00;;;;4934767;28;87215;-69
2024/02/20 04:19:50;;;;;;;7.97;4.57;;;8.20;99.90;8.00;101045.00;;;;4934725;28;116437;-70
2024/02/20 04:22:16;;;;;;;7.63;5.33;;;8.10;99.90;8.00;101046.00;;;;4940395;28;110521;-69
2024/02/20 04:24:41;;;;;;;8.67;4.83;;;8.40;99.90;8.00;101052.00;;;;4932730;28;107976;-68
2024/02/20 04:27:07;;;;;;;6.43;4.60;;;8.10;99.90;8.00;101049.00;;;;4934915;28;117612;-72
2024/02/20 04:29:33;;;;;;;10.27;6.13;;;8.10;99.90;8.00;101061.00;;;;4931261;28;116415;-70
2024/02/20 04:31:58;;;;;;;7.70;5.27;;;8.10;99.90;8.00;101053.00;;;;4934407;28;110428;-70
2024/02/20 04:34:24;;;;;;;7.57;4.97;;;8.10;99.90;8.00;101050.00;;;;4932630;28;109040;-68
2024/02/20 04:36:49;;;;;;;8.67;5.50;;;8.10;99.90;7.90;101056.00;;;;4929795;28;117511;-68
2024/02/20 04:39:15;;;;;;;10.03;5.67;;;8.10;99.90;7.90;101059.00;;;;4932168;28;89087;-68
2024/02/20 04:41:41;;;;;;;7.97;5.23;;;8.00;99.90;7.90;101058.00;;;;4930411;28;109573;-68
2024/02/20 04:44:06;;;;;;;9.17;4.83;;;8.00;99.90;7.90;101064.00;;;;4931149;28;107075;-69
2024/02/20 04:46:32;;;;;;;7.83;5.37;;;8.00;99.90;7.90;101070.00;;;;4931109;28;117303;-68
2024/02/20 04:48:58;;;;;;;7.97;5.17;;;8.00;99.90;7.90;101067.00;;;;4925118;28;117467;-69
2024/02/20 04:51:23;;;;;;;9.30;4.47;;;8.00;99.90;7.90;101067.00;;;;4926547;28;111790;-68
2024/02/20 04:53:49;;;;;;;7.17;4.70;;;8.10;99.90;7.90;101077.00;;;;4929180;28;108984;-70
2024/02/20 04:56:15;;;;;;;7.50;5.50;;;8.00;99.90;7.90;101072.00;;;;4919298;28;111768;-68
2024/02/20 04:58:40;;;;;;;6.00;4.63;;;8.00;99.90;7.90;101075.00;;;;4933437;28;88084;-69
2024/02/20 05:01:07;;;;;;;9.40;5.40;;;8.10;99.90;7.90;101065.00;;;;4934924;28;110273;-68
2024/02/20 05:03:33;;;;;;;7.73;5.07;;;8.10;99.90;7.90;101078.00;;;;4928950;28;87839;-68
2024/02/20 05:05:58;;;;;;;8.60;5.80;;;8.10;99.90;7.90;101080.00;;;;4929550;28;118742;-68
2024/02/20 05:08:24;;;;;;;10.63;5.97;;;8.10;99.90;8.00;101079.00;;;;4933150;28;115263;-68
2024/02/20 05:10:50;;;;;;;7.87;5.17;;;8.10;99.90;8.00;101081.00;;;;4932781;28;92031;-68
2024/02/20 05:13:15;;;;;;;10.20;5.17;;;8.10;99.90;8.00;101070.00;;;;4929579;28;107872;-67
2024/02/20 05:15:41;;;;;;;6.97;5.30;;;8.10;99.90;8.00;101076.00;;;;4931610;28;120231;-68
2024/02/20 05:18:07;;;;;;;6.17;4.60;;;8.10;99.90;8.00;101069.00;;;;4926238;28;118398;-67
2024/02/20 05:20:32;;;;;;;8.33;4.70;;;8.20;99.90;8.00;101073.00;;;;4928976;28;110487;-69
2024/02/20 05:22:58;;;;;;;7.37;4.70;;;8.10;99.90;8.00;101083.00;;;;4926839;28;110232;-68
2024/02/20 05:25:23;;;;;;;12.10;5.07;;;8.10;99.90;7.90;101087.00;;;;4924588;28;117504;-70
2024/02/20 05:27:49;;;;;;;8.07;4.60;;;8.10;99.90;7.90;101089.00;;;;4926771;28;117092;-69
2024/02/20 05:30:15;;;;;;;9.23;4.83;;;8.10;99.90;7.90;101089.00;;;;4925903;28;110661;-69
2024/02/20 05:32:41;;;;;;;9.30;5.13;;;8.10;99.90;8.00;101102.00;;;;4927838;28;87803;-67
2024/02/20 05:35:08;;;;;;;6.07;3.70;;;8.10;99.90;7.90;101086.00;;;;4888487;28;1109722;-69
2024/02/20 05:37:33;;;;;;;8.07;5.73;;;8.10;99.90;7.90;101089.00;;;;4931398;28;88849;-68
2024/02/20 05:39:59;;;;;;;4.70;3.60;;;8.10;99.90;7.90;101094.00;;;;4932822;28;87817;-69
2024/02/20 05:42:25;;;;;;;6.53;4.93;;;8.00;99.90;7.90;101108.00;;;;4936697;28;91096;-68
2024/02/20 05:44:50;;;;;;;9.13;4.87;;;8.00;99.90;7.90;101103.00;;;;4931078;28;87859;-70
2024/02/20 05:47:16;;;;;;;7.90;4.07;;;8.00;99.90;7.90;101107.00;;;;4943394;28;116869;-69
2024/02/20 05:49:42;;;;;;;9.67;5.50;;;8.00;99.90;7.80;101106.00;;;;4936140;28;88017;-69
2024/02/20 05:52:10;;;;;;;6.07;3.97;;;8.00;99.90;7.80;101113.00;;;;4933705;28;108779;-69
2024/02/20 05:54:36;;;;;;;7.83;3.90;;;8.10;99.90;7.80;101112.00;;;;4932624;28;88497;-68
2024/02/20 05:57:01;;;;;;;6.43;4.07;;;7.90;99.90;7.80;101119.00;;;;4929405;28;116285;-70
2024/02/20 05:59:28;;;;;;;6.80;4.00;;;7.90;99.90;7.80;101119.00;;;;4936330;28;87664;-68
2024/02/20 06:01:55;;;;;;;6.83;4.20;;;7.90;99.90;7.80;101121.00;;;;4932348;28;88667;-70
2024/02/20 06:04:20;;;;;;;6.20;3.93;;;7.90;99.90;7.70;101118.00;;;;4933740;28;88831;-70
2024/02/20 06:06:46;;;;;;;4.43;3.23;;;7.90;99.90;7.70;101122.00;;;;4931656;28;116608;-68
2024/02/20 06:09:12;;;;;;;6.67;3.70;;;7.90;99.90;7.70;101123.00;;;;4930841;28;87712;-70
2024/02/20 06:11:38;;;;;;;5.33;3.57;;;7.90;99.90;7.70;101130.00;;;;4934370;28;109659;-68
2024/02/20 06:14:03;;;;;;;6.17;2.80;;;7.90;99.90;7.70;101125.00;;;;4936607;28;116642;-69
2024/02/20 06:16:29;;;;;;;6.83;3.93;;;7.90;99.90;7.70;101130.00;;;;4936305;28;88080;-68
2024/02/20 06:18:55;;;;;;;5.77;3.33;;;7.90;99.90;7.70;101128.00;;;;4937407;28;110146;-69
2024/02/20 06:21:23;;;;;;;4.53;3.23;;;7.80;99.90;7.70;101137.00;;;;4936420;28;88071;-69
2024/02/20 06:23:49;;;;;;;3.50;2.80;;;7.80;99.90;7.70;101142.00;;;;4934505;28;88684;-69
2024/02/20 06:26:17;;;;;;;3.73;2.53;;;7.80;99.90;7.70;101142.00;;;;4929708;28;93428;-70
2024/02/20 06:28:43;;;;;;;4.23;2.67;;;7.80;99.90;7.70;101133.00;;;;4932782;28;88303;-69
2024/02/20 06:31:08;;;;;;;3.93;2.33;;;7.80;99.90;7.60;101146.00;;;;4938513;28;96330;-67
2024/02/20 06:33:35;;;;;;;5.00;2.53;;;7.70;99.90;7.60;101145.00;;;;4930453;28;116638;-70
2024/02/20 06:36:01;;;;;;;2.73;1.90;;;7.80;99.90;7.60;101146.00;;;;4933123;28;88246;-70
2024/02/20 06:38:32;;;;;;;5.93;2.73;;;8.20;99.90;7.60;101153.00;;;;4930742;28;110374;-69
2024/02/20 06:41:00;;;;;;;2.77;2.33;;;8.00;99.90;7.60;101159.00;;;;4936694;28;87778;-69
2024/02/20 06:43:26;;;;;;;2.90;2.30;;;7.70;99.90;7.60;101154.00;;;;4931842;28;116785;-70
2024/02/20 06:45:55;;;;;;;4.20;2.83;;;7.70;99.90;7.60;101158.00;;;;4933254;28;87899;-69
2024/02/20 06:48:21;;;;;;;5.07;1.90;;;7.80;99.90;7.60;101158.00;;;;4939433;28;88346;-69
2024/02/20 06:50:47;;;;;;;2.93;1.80;;;7.70;99.90;7.60;101169.00;;;;4933899;28;91999;-69
2024/02/20 06:53:13;;;;;;;2.77;1.73;;;7.70;99.90;7.50;101166.00;;;;4935991;28;117685;-68
2024/02/20 06:55:38;;;;;;;3.70;1.93;;;7.70;99.90;7.50;101168.00;;;;4934783;28;116848;-69
2024/02/20 06:58:04;;;;;;;3.10;1.60;;;7.70;99.90;7.50;101178.00;;;;4935964;28;110305;-69
2024/02/20 07:00:30;;;;;;;1.60;1.03;;;7.60;99.90;7.50;101181.00;;;;4929863;28;109426;-70
2024/02/20 07:02:55;;;;;;;2.03;1.30;;;7.70;99.90;7.60;101180.00;;;;4926937;28;88411;-72
2024/02/20 07:05:21;;;;;;;3.63;0.93;;;7.70;99.90;7.60;101181.00;;;;4934530;28;118732;-72
2024/02/20 07:07:47;;;;;;;2.73;1.70;;;7.70;99.90;7.60;101186.00;;;;4936002;28;87190;-72
2024/02/20 07:10:13;;;;;;;2.27;1.20;;;7.80;99.90;7.60;101195.00;;;;4931305;28;88061;-72
2024/02/20 07:12:39;;;;;;;2.40;1.70;;;7.80;99.90;7.70;101201.00;;;;4936816;28;104622;-69
2024/02/20 07:15:06;;;;;;;1.13;1.03;;;7.80;99.90;7.70;101190.00;;;;4934940;28;116620;-69
2024/02/20 07:17:35;;;;;;;3.50;1.23;;;7.80;99.90;7.70;101200.00;;;;4933475;28;87780;-72
2024/02/20 07:20:03;;;;;;;2.13;0.93;;;7.90;99.90;7.70;101200.00;;;;4937483;28;87960;-72
2024/02/20 07:22:29;;;;;;;1.40;0.60;;;7.90;99.90;7.70;101193.00;;;;4930016;28;88471;-71
2024/02/20 07:24:55;;;;;;;0.90;0.70;;;7.90;99.90;7.80;101202.00;;;;4915393;28;87683;-70
2024/02/20 07:27:21;;;;;;;2.90;0.70;;;7.90;99.90;7.80;101193.00;;;;4928777;28;109649;-71
2024/02/20 07:29:49;;;;;;;1.43;0.33;;;7.90;99.90;7.80;101206.00;;;;4933865;28;107767;-70
2024/02/20 07:32:15;;;;;;;0.60;0.57;;;7.90;99.90;7.80;101210.00;;;;4935810;28;88565;-70
2024/02/20 07:34:41;;;;;;;0.43;0.40;;;7.90;99.90;7.80;101210.00;;;;4935013;28;107927;-71
2024/02/20 07:37:07;;;;;;;1.80;0.80;;;7.90;99.90;7.80;101222.00;;;;4931546;28;109657;-68
2024/02/20 07:39:33;;;;;;;0.50;0.50;;;8.00;99.90;7.80;101218.00;;;;4926622;28;108565;-69
2024/02/20 07:41:59;;;;;;;1.00;0.63;;;7.90;99.90;7.80;101222.00;;;;4933122;28;88040;-70
2024/02/20 07:44:25;;;;;;;0.60;0.60;;;7.90;99.90;7.90;101219.00;;;;4931128;28;117560;-68
2024/02/20 07:46:52;;;;;;;0.30;0.30;;;8.00;99.90;7.90;101219.00;;;;4933884;28;111051;-69
2024/02/20 07:49:18;;;;;;;0.90;0.67;;;8.00;99.90;7.90;101232.00;;;;4931603;28;87790;-69
2024/02/20 07:51:43;;;;;;;2.63;0.80;;;8.00;99.90;7.90;101235.00;;;;4933548;28;116854;-68
2024/02/20 07:54:09;;;;;;;0.70;0.70;;;8.00;99.90;7.90;101232.00;;;;4933048;28;117039;-69
2024/02/20 07:56:35;;;;;;;3.53;1.40;;;8.00;99.90;7.90;101229.00;;;;4931899;28;109445;-70
2024/02/20 07:59:00;;;;;;;0.47;0.47;;;8.00;99.90;7.90;101234.00;;;;4931019;28;87789;-70
2024/02/20 08:01:26;;;;;;;1.23;0.60;;;8.00;99.90;7.90;101248.00;;;;4938989;28;118044;-68
2024/02/20 08:03:55;;;;;;;1.10;0.53;;;8.00;99.90;8.00;101249.00;;;;4933611;28;89165;-68
2024/02/20 08:06:21;;;;;;;2.40;0.87;;;8.10;99.90;8.00;101249.00;;;;4948960;28;87994;-68
2024/02/20 08:08:47;;;;;;;1.47;0.90;;;8.10;99.90;8.00;101241.00;;;;4934742;28;87800;-70
2024/02/20 08:11:13;;;;;;;1.43;0.87;;;8.20;99.90;8.10;101247.00;;;;4926768;28;99473;-69
2024/02/20 08:13:47;;;;;;;1.00;0.70;;;8.20;99.90;8.10;101246.00;;;;4929266;28;110067;-69
2024/02/20 08:16:13;;;;;;;0.90;0.90;;;8.20;99.90;8.20;101248.00;;;;4928317;28;87839;-67
2024/02/20 08:18:40;;;;;;;2.73;1.20;;;8.30;99.90;8.20;101254.00;;;;4933877;28;88037;-68
2024/02/20 08:21:10;;;;;;;2.93;0.97;;;8.30;99.90;8.20;101245.00;;;;4931438;28;87897;-68
2024/02/20 08:23:42;;;;;;;1.63;0.97;;;8.30;99.90;8.30;101250.00;;;;4927905;28;88062;-68
2024/02/20 08:26:07;;;;;;;3.30;0.90;;;8.40;99.90;8.30;101252.00;;;;4932733;28;87968;-70
2024/02/20 08:28:33;;;;;;;2.67;1.07;;;8.40;99.90;8.30;101246.00;;;;4935668;28;109419;-68
2024/02/20 08:31:01;;;;;;;1.60;1.40;;;8.40;99.90;8.40;101250.00;;;;4929499;28;116993;-71
2024/02/20 08:33:27;;;;;;;1.80;1.40;;;8.50;99.90;8.40;101253.00;;;;4933458;28;88302;-71
2024/02/20 08:35:53;;;;;;;1.97;1.20;;;8.50;99.90;8.40;101240.00;;;;4949012;28;110093;-71
2024/02/20 08:38:20;;;;;;;0.93;0.73;;;8.50;99.90;8.40;101248.00;;;;4937498;28;88186;-68
2024/02/20 08:40:45;;;;;;;0.90;0.90;;;8.60;99.90;8.40;101246.00;;;;4948964;28;116268;-71
2024/02/20 08:43:12;;;;;;;1.70;1.60;;;8.50;99.90;8.50;101244.00;;;;4934667;28;117167;-69
2024/02/20 08:45:37;;;;;;;2.53;1.77;;;8.60;99.90;8.80;101248.00;;;;4934174;28;87421;-69
2024/02/20 08:48:04;;;;;;;1.87;1.30;;;8.80;99.90;9.10;101249.00;;;;4930744;28;87862;-70
2024/02/20 08:50:29;;;;;;;2.07;1.47;;;9.10;99.90;9.30;101251.00;;;;4933712;28;108133;-70
2024/02/20 08:52:55;;;;;;;10.93;2.47;;;9.30;99.90;9.40;101259.00;;;;4931384;28;101435;-68
2024/02/20 08:55:21;;;;;;;3.50;2.10;;;9.50;99.90;9.60;101252.00;;;;4933163;28;103330;-69
2024/02/20 08:57:46;;;;;;;3.30;1.73;;;9.60;99.90;9.70;101260.00;;;;4933224;28;108683;-70
2024/02/20 09:00:16;;;;;;;1.40;0.97;;;9.70;99.90;9.70;101268.00;;;;4936035;28;117247;-69
2024/02/20 09:02:42;;;;;;;5.47;1.33;;;9.80;99.90;9.80;101251.00;;;;4930244;28;88515;-70
2024/02/20 09:05:11;;;;;;;2.07;1.20;;;9.80;99.90;9.80;101260.00;;;;4938413;28;88194;-69
2024/02/20 09:07:38;;;;;;;1.03;0.80;;;9.90;99.90;9.80;101275.00;;;;4932694;28;87908;-69
2024/02/20 09:10:05;;;;;;;2.17;0.80;;;9.90;99.90;9.70;101260.00;;;;4931515;28;88205;-70
2024/02/20 09:12:31;;;;;;;1.13;1.10;;;9.80;99.90;9.70;101264.00;;;;4933640;28;88527;-69
2024/02/20 09:14:57;;;;;;;1.80;0.80;;;9.80;99.90;9.60;101261.00;;;;4933671;28;103858;-69
2024/02/20 09:17:23;;;;;;;1.60;1.00;;;9.70;99.90;9.50;101260.00;;;;4940475;28;89236;-69
2024/02/20 09:19:49;;;;;;;2.70;0.87;;;9.60;99.90;9.50;101272.00;;;;4933956;28;118829;-71
2024/02/20 09:22:15;;;;;;;1.00;0.90;;;9.20;99.90;9.40;101261.00;;;;4931797;28;87844;-69
2024/02/20 09:24:41;;;;;;;1.23;1.00;;;9.60;99.90;9.30;101259.00;;;;4936411;28;88527;-70
2024/02/20 09:27:07;;;;;;;2.00;0.80;;;9.40;99.90;9.30;101276.00;;;;4930876;28;87839;-70
2024/02/20 09:29:32;;;;;;;0.60;0.53;;;9.40;99.90;9.20;101277.00;;;;4934283;28;118609;-70
2024/02/20 09:31:58;;;;;;;5.23;1.10;;;9.40;99.90;9.10;101279.00;;;;4934905;28;116333;-71
2024/02/20 09:34:25;;;;;;;1.13;0.63;;;9.30;99.90;9.10;101296.00;;;;4934307;28;100136;-69
2024/02/20 09:36:51;;;;;;;0.73;0.70;;;9.20;99.90;9.10;101293.00;;;;4933326;28;87854;-70
2024/02/20 09:39:17;;;;;;;1.63;0.90;;;9.20;99.90;9.10;101279.00;;;;4932535;28;118231;-69
2024/02/20 09:41:43;;;;;;;2.53;0.53;;;9.10;99.90;9.10;101282.00;;;;4933212;28;108668;-70
2024/02/20 09:44:11;;;;;;;0.50;0.50;;;9.20;99.90;9.20;101285.00;;;;4944566;28;109478;-70
2024/02/20 09:46:42;;;;;;;0.77;0.53;;;9.30;99.90;9.40;101294.00;;;;4948234;28;107233;-70
2024/02/20 09:49:09;;;;;;;2.43;0.80;;;9.40;99.90;9.50;101287.00;;;;4946926;28;88044;-70
2024/02/20 09:51:36;;;;;;;1.20;0.67;;;9.50;99.90;9.50;101292.00;;;;4932025;28;104861;-70
2024/02/20 09:54:03;;;;;;;0.73;0.57;;;9.80;99.90;9.60;101294.00;;;;4932378;28;87971;-69
2024/02/20 09:56:35;;;;;;;1.03;0.63;;;9.60;99.90;9.50;101287.00;;;;4931956;28;87897;-70
2024/02/20 09:59:01;;;;;;;1.43;0.43;;;9.60;99.90;9.50;101300.00;;;;4931985;28;88279;-71
2024/02/20 10:01:27;;;;;;;0.57;0.57;;;9.60;99.90;9.50;101303.00;;;;4929312;28;92065;-70
2024/02/20 10:03:58;;;;;;;0.83;0.47;;;9.60;99.90;9.50;101307.00;;;;4936991;28;110685;-69
2024/02/20 10:06:25;;;;;;;1.37;0.80;;;9.60;99.90;9.50;101303.00;;;;4934596;28;88800;-69
2024/02/20 10:08:52;;;;;;;8.13;0.80;;;9.60;99.90;9.50;101300.00;;;;4933732;28;117280;-70
2024/02/20 10:11:18;;;;;;;0.50;0.50;;;9.70;99.90;9.50;101296.00;;;;4944133;28;89524;-70
2024/02/20 10:13:45;;;;;;;0.73;0.63;;;9.60;99.90;9.50;101300.00;;;;4930530;28;110240;-70
2024/02/20 10:16:15;;;;;;;2.50;0.33;;;9.50;99.90;9.50;101312.00;;;;4926854;28;89291;-70
2024/02/20 10:18:42;;;;;;;2.97;0.77;;;9.50;99.90;9.50;101316.00;;;;4930174;28;89290;-69
2024/02/20 10:21:09;;;;;;;3.47;1.17;;;9.50;99.90;9.60;101314.00;;;;4941583;28;103127;-70
2024/02/20 10:23:35;;;;;;;1.27;0.80;;;9.60;99.90;9.60;101319.00;;;;4933583;28;87059;-69
2024/02/20 10:26:01;;;;;;;1.23;0.60;;;9.70;99.90;9.50;101315.00;;;;4933579;28;91819;-69
2024/02/20 10:28:28;;;;;;;2.63;1.03;;;9.60;99.90;9.50;101319.00;;;;4931213;28;89504;-72
2024/02/20 10:30:55;;;;;;;2.10;0.30;;;9.60;99.90;9.40;101323.00;;;;4942583;28;116174;-70
2024/02/20 10:33:22;;;;;;;6.27;1.27;;;9.60;99.90;9.40;101320.00;;;;4926907;28;88284;-70
2024/02/20 10:35:47;;;;;;;1.13;0.60;;;9.50;99.90;9.30;101319.00;;;;4931887;28;101078;-70
2024/02/20 10:38:18;;;;;;;6.63;1.47;;;9.50;99.90;9.30;101313.00;;;;4935848;28;109580;-70
2024/02/20 10:40:44;;;;;;;1.27;0.83;;;9.40;99.90;9.20;101311.00;;;;4933516;28;87754;-70
2024/02/20 10:43:12;;;;;;;0.77;0.77;;;9.40;99.90;9.20;101303.00;;;;4930188;28;110458;-70
2024/02/20 10:45:41;;;;;;;2.70;0.97;;;9.40;99.90;9.20;101305.00;;;;4929458;28;87712;-71
2024/02/20 10:48:10;;;;;;;3.50;0.80;;;9.40;99.90;9.20;101308.00;;;;4931412;28;87600;-70
2024/02/20 10:50:36;;;;;;;5.10;0.87;;;9.30;99.90;9.20;101306.00;;;;4929166;28;88270;-70
2024/02/20 10:53:02;;;;;;;7.57;1.17;;;9.30;99.90;9.20;101324.00;;;;4930984;28;87970;-69
2024/02/20 10:55:31;;;;;;;5.00;1.27;;;9.30;99.90;9.30;101318.00;;;;4933776;28;89070;-73
2024/02/20 10:57:59;;;;;;;2.83;1.30;;;9.40;99.90;9.40;101314.00;;;;4945468;28;88096;-71
2024/02/20 11:00:26;;;;;;;5.20;0.93;;;9.40;99.90;9.40;101317.00;;;;4933048;28;88872;-72
2024/02/20 11:02:54;;;;;;;4.10;1.63;;;9.50;99.90;9.40;101322.00;;;;4931570;28;87845;-69
2024/02/20 11:05:20;;;;;;;1.60;0.90;;;9.50;99.90;9.40;101300.00;;;;4927262;28;109601;-70
2024/02/20 11:07:46;;;;;;;4.90;1.77;;;9.50;99.90;9.40;101306.00;;;;4932158;28;88919;-71
2024/02/20 11:10:23;;;;;;;2.33;0.90;;;9.50;99.90;9.50;101311.00;;;;4921179;28;89970;-70
2024/02/20 11:12:52;;;;;;;5.13;1.20;;;9.60;99.90;9.60;101315.00;;;;4930417;28;87160;-70
2024/02/20 11:15:20;;;;;;;7.00;1.10;;;9.60;99.90;9.70;101309.00;;;;4933272;28;88095;-72